Time;durP1;ratioP1;P1;durP2;ratioP2;P2;SDS_P1;SDS_P2;PMS_P1;PMS_P2;Temp;Humidity;BMP_temperature;BMP_pressure;BME280_temperature;BME280_humidity;BME280_pressure;Samples;Min_cycle;Max_cycle;Signal;HPM_P1;HPM_P2
2022/10/30 00:02:05;;;;;;;;;;;16.60;99.90;;;;;;5043696;28;20290;-82
2022/10/30 00:04:31;;;;;;;;;;;16.60;99.90;;;;;;5046566;28;20062;-81
2022/10/30 00:06:56;;;;;;;;;;;16.60;99.90;;;;;;5044481;28;19924;-81
2022/10/30 00:09:22;;;;;;;;;;;16.60;99.90;;;;;;5024851;28;20264;-81
2022/10/30 00:11:47;;;;;;;;;;;16.70;99.90;;;;;;5042024;28;20395;-82
2022/10/30 00:14:13;;;;;;;;;;;16.70;99.90;;;;;;5034562;28;19956;-81
2022/10/30 00:16:38;;;;;;;;;;;16.70;99.90;;;;;;5038410;28;19942;-81
2022/10/30 00:19:04;;;;;;;;;;;16.70;99.90;;;;;;5044485;28;19919;-81
2022/10/30 00:21:29;;;;;;;;;;;16.70;99.90;;;;;;5046360;28;19978;-83
2022/10/30 00:23:55;;;;;;;;;;;16.70;99.90;;;;;;5034725;28;20380;-80
2022/10/30 00:26:21;;;;;;;;;;;16.60;99.90;;;;;;5039180;28;20391;-81
2022/10/30 00:28:53;;;;;;;;;;;16.60;99.90;;;;;;5040242;28;19975;-81
2022/10/30 00:31:19;;;;;;;;;;;16.60;99.90;;;;;;5028440;28;20565;-81
2022/10/30 00:33:48;;;;;;;;;;;16.50;99.90;;;;;;5033436;28;19908;-82
2022/10/30 00:36:13;;;;;;;;;;;16.40;99.90;;;;;;5046926;28;20113;-82
2022/10/30 00:38:39;;;;;;;;;;;16.40;99.90;;;;;;5050108;28;19917;-81
2022/10/30 00:41:04;;;;;;;;;;;16.30;99.90;;;;;;5042012;28;19936;-79
2022/10/30 00:43:37;;;;;;;;;;;16.30;99.90;;;;;;5041862;28;20512;-82
2022/10/30 00:46:12;;;;;;;;;;;16.40;99.90;;;;;;5023758;28;19928;-82
2022/10/30 00:48:38;;;;;;;;;;;16.30;99.90;;;;;;5030089;28;19928;-81
2022/10/30 00:51:07;;;;;;;;;;;16.20;99.90;;;;;;5031490;28;19924;-80
2022/10/30 00:53:32;;;;;;;;;;;16.10;99.90;;;;;;5041812;28;19917;-81
2022/10/30 00:56:00;;;;;;;;;;;16.20;99.90;;;;;;5048397;28;19928;-82
2022/10/30 00:58:31;;;;;;;;;;;16.20;99.90;;;;;;5040715;28;20061;-82
2022/10/30 01:00:59;;;;;;;;;;;16.10;99.90;;;;;;5041344;28;19964;-82
2022/10/30 01:03:25;;;;;;;;;;;16.10;99.90;;;;;;5035454;28;19959;-82
2022/10/30 01:05:54;;;;;;;;;;;16.10;99.90;;;;;;5046158;28;20349;-82
2022/10/30 01:08:19;;;;;;;;;;;16.20;99.90;;;;;;5042809;28;20078;-82
2022/10/30 01:10:46;;;;;;;;;;;16.10;99.90;;;;;;5039469;28;19999;-82
2022/10/30 01:13:11;;;;;;;;;;;16.10;99.90;;;;;;5031239;28;19928;-82
2022/10/30 01:15:49;;;;;;;;;;;16.10;99.90;;;;;;5042503;28;19917;-82
2022/10/30 01:18:17;;;;;;;;;;;16.20;99.90;;;;;;5040181;28;19924;-82
2022/10/30 01:20:52;;;;;;;;;;;16.10;99.90;;;;;;5043606;28;19923;-82
2022/10/30 01:23:27;;;;;;;;;;;16.10;99.90;;;;;;5024911;28;19940;-82
2022/10/30 01:26:10;;;;;;;;;;;16.10;99.90;;;;;;5057367;28;19929;-82
2022/10/30 01:28:45;;;;;;;;;;;16.10;99.90;;;;;;5042527;28;20394;-82
2022/10/30 01:31:29;;;;;;;;;;;16.00;99.90;;;;;;5040907;28;19917;-83
2022/10/30 01:34:13;;;;;;;;;;;16.00;99.90;;;;;;5040515;28;20045;-82
2022/10/30 01:37:04;;;;;;;;;;;16.10;99.90;;;;;;5054359;28;19921;-81
2022/10/30 01:39:35;;;;;;;;;;;16.00;99.90;;;;;;5022156;28;19920;-82
2022/10/30 01:42:08;;;;;;;;;;;16.00;99.90;;;;;;5023064;28;20603;-81
2022/10/30 01:44:33;;;;;;;;;;;16.00;99.90;;;;;;5043971;28;20073;-82
2022/10/30 01:47:07;;;;;;;;;;;15.90;99.90;;;;;;5040951;28;20454;-82
2022/10/30 01:49:46;;;;;;;;;;;15.90;99.90;;;;;;5044898;28;20509;-81
2022/10/30 01:52:21;;;;;;;;;;;15.90;99.90;;;;;;5048049;28;19970;-82
2022/10/30 01:54:57;;;;;;;;;;;15.90;99.90;;;;;;5047581;28;19960;-81
2022/10/30 01:57:41;;;;;;;;;;;15.90;99.90;;;;;;5045011;28;19923;-82
2022/10/30 02:00:08;;;;;;;;;;;15.80;99.90;;;;;;5039527;28;19917;-82
2022/10/30 02:02:34;;;;;;;;;;;15.90;99.90;;;;;;5020403;28;19996;-82
2022/10/30 02:04:59;;;;;;;;;;;15.90;99.90;;;;;;5053709;28;19985;-82
2022/10/30 02:07:25;;;;;;;;;;;15.90;99.90;;;;;;5022900;28;19925;-81
2022/10/30 02:09:51;;;;;;;;;;;15.90;99.90;;;;;;5049091;28;19916;-81
2022/10/30 02:12:18;;;;;;;;;;;15.90;99.90;;;;;;5049019;28;20284;-82
2022/10/30 02:14:46;;;;;;;;;;;15.90;99.90;;;;;;5032705;28;19926;-82
2022/10/30 02:17:12;;;;;;;;;;;15.80;99.90;;;;;;5049947;28;19927;-82
2022/10/30 02:19:38;;;;;;;;;;;15.80;99.90;;;;;;5031419;28;19912;-82
2022/10/30 02:22:03;;;;;;;;;;;15.80;99.90;;;;;;5048739;28;19923;-81
2022/10/30 02:24:29;;;;;;;;;;;15.80;99.90;;;;;;5032394;28;20062;-82
2022/10/30 02:26:55;;;;;;;;;;;15.80;99.90;;;;;;5033059;28;19924;-81
2022/10/30 02:29:20;;;;;;;;;;;15.80;99.90;;;;;;5048263;28;19917;-82
2022/10/30 02:31:46;;;;;;;;;;;15.80;99.90;;;;;;5048110;28;19957;-81
2022/10/30 02:34:12;;;;;;;;;;;15.80;99.90;;;;;;5046566;28;20328;-82
2022/10/30 02:36:37;;;;;;;;;;;15.70;99.90;;;;;;5065878;28;19920;-81
2022/10/30 02:39:03;;;;;;;;;;;15.70;99.90;;;;;;5030565;28;19921;-82
2022/10/30 02:41:28;;;;;;;;;;;15.70;99.90;;;;;;5048020;28;19916;-82
2022/10/30 02:43:54;;;;;;;;;;;15.60;99.90;;;;;;5047032;28;19991;-81
2022/10/30 02:46:20;;;;;;;;;;;15.60;99.90;;;;;;5046544;28;20435;-82
2022/10/30 02:48:45;;;;;;;;;;;15.60;99.90;;;;;;5045799;28;20304;-82
2022/10/30 02:51:11;;;;;;;;;;;15.60;99.90;;;;;;5038250;28;20378;-81
2022/10/30 02:53:37;;;;;;;;;;;15.50;99.90;;;;;;5048655;28;19916;-81
2022/10/30 02:56:03;;;;;;;;;;;15.50;99.90;;;;;;5039634;28;19917;-81
2022/10/30 02:58:29;;;;;;;;;;;15.40;99.90;;;;;;5044150;28;20294;-81
2022/10/30 03:00:54;;;;;;;;;;;15.40;99.90;;;;;;5034887;28;19940;-82
2022/10/30 03:03:20;;;;;;;;;;;15.40;99.90;;;;;;5044838;28;19949;-81
2022/10/30 03:05:45;;;;;;;;;;;15.40;99.90;;;;;;5039082;28;19925;-82
2022/10/30 03:08:11;;;;;;;;;;;15.30;99.90;;;;;;5046037;28;19978;-81
2022/10/30 03:10:36;;;;;;;;;;;15.30;99.90;;;;;;5042884;28;19917;-81
2022/10/30 03:13:02;;;;;;;;;;;15.30;99.90;;;;;;5038860;28;19980;-82
2022/10/30 03:15:27;;;;;;;;;;;15.20;99.90;;;;;;5046267;28;19967;-82
2022/10/30 03:17:53;;;;;;;;;;;15.20;99.90;;;;;;5040477;28;19916;-82
2022/10/30 03:20:18;;;;;;;;;;;15.10;99.90;;;;;;5046464;28;19989;-82
2022/10/30 03:22:44;;;;;;;;;;;15.10;99.90;;;;;;5049079;28;19993;-82
2022/10/30 03:25:09;;;;;;;;;;;15.10;99.90;;;;;;5041794;28;19924;-82
2022/10/30 03:27:35;;;;;;;;;;;14.90;99.90;;;;;;5042379;28;19923;-82
2022/10/30 03:30:00;;;;;;;;;;;14.80;99.90;;;;;;5043928;28;20402;-82
2022/10/30 03:32:26;;;;;;;;;;;14.70;99.90;;;;;;5035944;28;20019;-82
2022/10/30 03:34:51;;;;;;;;;;;14.70;99.90;;;;;;5043680;28;19920;-82
2022/10/30 03:37:17;;;;;;;;;;;14.60;99.90;;;;;;5046837;28;19924;-82
2022/10/30 03:39:42;;;;;;;;;;;14.60;99.90;;;;;;5046014;28;20303;-82
2022/10/30 03:42:08;;;;;;;;;;;14.50;99.90;;;;;;5043637;28;19917;-82
2022/10/30 03:44:33;;;;;;;;;;;14.50;99.90;;;;;;5043006;28;20269;-82
2022/10/30 03:46:59;;;;;;;;;;;14.40;99.90;;;;;;5054390;28;20011;-82
2022/10/30 03:49:24;;;;;;;;;;;14.40;99.90;;;;;;5036732;28;19976;-82
2022/10/30 03:51:50;;;;;;;;;;;14.30;99.90;;;;;;5049275;28;20046;-82
2022/10/30 03:54:15;;;;;;;;;;;14.20;99.90;;;;;;5042876;28;19940;-81
2022/10/30 03:56:43;;;;;;;;;;;14.20;99.90;;;;;;5044753;28;20044;-82
2022/10/30 03:59:08;;;;;;;;;;;14.10;99.90;;;;;;5055565;28;19924;-81
2022/10/30 04:01:33;;;;;;;;;;;14.10;99.90;;;;;;5038086;28;19916;-81
2022/10/30 04:03:59;;;;;;;;;;;14.10;99.90;;;;;;5045924;28;19989;-81
2022/10/30 04:06:24;;;;;;;;;;;14.20;99.90;;;;;;5043955;28;20415;-81
2022/10/30 04:08:50;;;;;;;;;;;14.20;99.90;;;;;;5046296;28;19917;-81
2022/10/30 04:11:15;;;;;;;;;;;14.10;99.90;;;;;;5044512;28;20372;-81
2022/10/30 04:13:41;;;;;;;;;;;14.20;99.90;;;;;;5021666;28;19961;-81
2022/10/30 04:16:06;;;;;;;;;;;14.20;99.90;;;;;;5041558;28;20168;-82
2022/10/30 04:18:32;;;;;;;;;;;14.20;99.90;;;;;;5025083;28;20344;-82
2022/10/30 04:20:58;;;;;;;;;;;14.20;99.90;;;;;;5044739;28;20426;-81
2022/10/30 04:23:23;;;;;;;;;;;14.20;99.90;;;;;;5038564;28;20327;-82
2022/10/30 04:25:49;;;;;;;;;;;14.20;99.90;;;;;;5044340;28;19924;-82
2022/10/30 04:28:14;;;;;;;;;;;14.30;99.90;;;;;;5059433;28;19917;-82
2022/10/30 04:30:40;;;;;;;;;;;14.30;99.90;;;;;;5041663;28;19939;-82
2022/10/30 04:33:07;;;;;;;;;;;14.30;99.90;;;;;;5040897;28;20406;-82
2022/10/30 04:35:33;;;;;;;;;;;14.30;99.90;;;;;;5042818;28;20410;-81
2022/10/30 04:38:00;;;;;;;;;;;14.20;99.90;;;;;;5036923;28;19921;-82
2022/10/30 04:40:27;;;;;;;;;;;14.30;99.90;;;;;;5039631;28;19917;-82
2022/10/30 04:42:52;;;;;;;;;;;14.20;99.90;;;;;;5049109;28;19916;-81
2022/10/30 04:45:18;;;;;;;;;;;14.30;99.90;;;;;;5065058;28;20320;-81
2022/10/30 04:47:44;;;;;;;;;;;14.30;99.90;;;;;;5038056;28;20342;-81
2022/10/30 04:50:09;;;;;;;;;;;14.30;99.90;;;;;;5057697;28;19929;-82
2022/10/30 04:52:35;;;;;;;;;;;14.30;99.90;;;;;;5046454;28;19920;-82
2022/10/30 04:55:01;;;;;;;;;;;14.30;99.90;;;;;;5050956;28;19982;-81
2022/10/30 04:57:26;;;;;;;;;;;14.30;99.90;;;;;;5044298;28;20473;-82
2022/10/30 04:59:51;;;;;;;;;;;14.30;99.90;;;;;;5041333;28;19917;-82
2022/10/30 05:02:20;;;;;;;;;;;14.30;99.90;;;;;;5041379;28;19978;-82
2022/10/30 05:04:45;;;;;;;;;;;14.30;99.90;;;;;;5042158;28;19936;-82
2022/10/30 05:07:14;;;;;;;;;;;14.30;99.90;;;;;;5040722;28;19920;-82
2022/10/30 05:09:40;;;;;;;;;;;14.40;99.90;;;;;;5043573;28;19971;-82
2022/10/30 05:12:05;;;;;;;;;;;14.40;99.90;;;;;;5040716;28;19968;-81
2022/10/30 05:14:31;;;;;;;;;;;14.40;99.90;;;;;;5052112;28;19921;-82
2022/10/30 05:16:57;;;;;;;;;;;14.40;99.90;;;;;;5040637;28;20281;-81
2022/10/30 05:19:23;;;;;;;;;;;14.30;99.90;;;;;;5038816;28;19960;-81
2022/10/30 05:21:48;;;;;;;;;;;14.30;99.90;;;;;;5041237;28;19917;-81
2022/10/30 05:24:14;;;;;;;;;;;14.30;99.90;;;;;;5058049;28;19924;-81
2022/10/30 05:26:39;;;;;;;;;;;14.30;99.90;;;;;;5046728;28;20095;-81
2022/10/30 05:29:05;;;;;;;;;;;14.30;99.90;;;;;;5031162;28;20551;-80
2022/10/30 05:31:30;;;;;;;;;;;14.30;99.90;;;;;;5037849;28;19971;-80
2022/10/30 05:33:56;;;;;;;;;;;14.30;99.90;;;;;;5040325;28;19962;-79
2022/10/30 05:36:21;;;;;;;;;;;14.30;99.90;;;;;;5042648;28;19913;-78
2022/10/30 05:38:47;;;;;;;;;;;14.30;99.90;;;;;;5043132;28;20360;-78
2022/10/30 05:41:12;;;;;;;;;;;14.50;99.90;;;;;;5042114;28;20131;-78
2022/10/30 05:43:38;;;;;;;;;;;14.50;99.90;;;;;;5052197;28;20022;-76
2022/10/30 05:46:03;;;;;;;;;;;14.50;99.90;;;;;;5041526;28;20039;-77
2022/10/30 05:48:29;;;;;;;;;;;14.60;99.90;;;;;;5047293;28;19924;-76
2022/10/30 05:50:55;;;;;;;;;;;14.60;99.90;;;;;;5038167;28;19931;-76
2022/10/30 05:53:21;;;;;;;;;;;14.70;99.90;;;;;;5054124;28;20045;-75
2022/10/30 05:55:46;;;;;;;;;;;14.80;99.90;;;;;;5042370;28;19912;-75
2022/10/30 05:58:12;;;;;;;;;;;14.90;99.90;;;;;;5036127;28;19924;-75
2022/10/30 06:00:39;;;;;;;;;;;14.80;99.90;;;;;;5019259;28;20447;-74
2022/10/30 06:03:06;;;;;;;;;;;14.90;99.90;;;;;;5039752;28;20420;-75
2022/10/30 06:05:33;;;;;;;;;;;15.00;99.90;;;;;;5033790;28;20184;-75
2022/10/30 06:07:58;;;;;;;;;;;15.00;99.90;;;;;;5033943;28;19923;-74
2022/10/30 06:10:24;;;;;;;;;;;15.10;99.90;;;;;;5028053;28;19917;-75
2022/10/30 06:12:56;;;;;;;;;;;15.00;99.90;;;;;;5026072;28;19913;-76
2022/10/30 06:15:22;;;;;;;;;;;15.00;99.90;;;;;;5032483;28;19921;-75
2022/10/30 06:17:47;;;;;;;;;;;15.00;99.90;;;;;;5039469;28;19923;-74
2022/10/30 06:20:13;;;;;;;;;;;15.10;99.90;;;;;;5029844;28;19979;-76
2022/10/30 06:22:39;;;;;;;;;;;15.20;99.90;;;;;;5039856;28;20023;-76
2022/10/30 06:25:05;;;;;;;;;;;15.20;99.90;;;;;;5043622;28;20220;-76
2022/10/30 06:27:33;;;;;;;;;;;15.20;99.90;;;;;;5038984;28;20388;-76
2022/10/30 06:29:58;;;;;;;;;;;15.20;99.90;;;;;;5038010;28;19996;-76
2022/10/30 06:32:24;;;;;;;;;;;15.20;99.90;;;;;;5041094;28;20015;-76
2022/10/30 06:34:49;;;;;;;;;;;15.20;99.90;;;;;;5039629;28;19943;-76
2022/10/30 06:37:15;;;;;;;;;;;15.20;99.90;;;;;;5044690;28;20372;-76
2022/10/30 06:39:40;;;;;;;;;;;15.20;99.90;;;;;;5043151;28;20176;-77
2022/10/30 06:42:06;;;;;;;;;;;15.30;99.90;;;;;;5041833;28;19917;-75
2022/10/30 06:44:32;;;;;;;;;;;15.20;99.90;;;;;;5045509;28;19978;-75
2022/10/30 06:46:57;;;;;;;;;;;15.20;99.90;;;;;;5042650;28;19916;-75
2022/10/30 06:49:23;;;;;;;;;;;15.20;99.90;;;;;;5042609;28;19959;-74
2022/10/30 06:51:49;;;;;;;;;;;15.20;99.90;;;;;;5044137;28;20406;-75
2022/10/30 06:54:15;;;;;;;;;;;15.20;99.90;;;;;;5044696;28;19917;-75
2022/10/30 06:56:40;;;;;;;;;;;15.20;99.90;;;;;;5046077;28;19943;-74
2022/10/30 06:59:06;;;;;;;;;;;15.20;99.90;;;;;;5044211;28;20015;-75
2022/10/30 07:01:31;;;;;;;;;;;15.20;99.90;;;;;;5039529;28;19923;-74
2022/10/30 07:03:57;;;;;;;;;;;15.20;99.90;;;;;;5043726;28;20019;-74
2022/10/30 07:06:22;;;;;;;;;;;15.20;99.90;;;;;;5035808;28;20245;-77
2022/10/30 07:08:48;;;;;;;;;;;15.20;99.90;;;;;;5042135;28;19917;-76
2022/10/30 07:11:13;;;;;;;;;;;15.20;99.90;;;;;;5043700;28;20004;-74
2022/10/30 07:13:39;;;;;;;;;;;15.20;99.90;;;;;;5041779;28;19928;-78
2022/10/30 07:16:05;;;;;;;;;;;15.20;99.90;;;;;;5043720;28;19923;-74
2022/10/30 07:18:30;;;;;;;;;;;15.10;99.90;;;;;;5043140;28;20380;-75
2022/10/30 07:20:56;;;;;;;;;;;15.10;99.90;;;;;;5045155;28;20075;-74
2022/10/30 07:23:21;;;;;;;;;;;15.10;99.90;;;;;;5041145;28;20453;-75
2022/10/30 07:25:47;;;;;;;;;;;15.00;99.90;;;;;;5043123;28;19924;-75
2022/10/30 07:28:12;;;;;;;;;;;14.90;99.90;;;;;;5041792;28;19985;-75
2022/10/30 07:30:38;;;;;;;;;;;14.90;99.90;;;;;;5036018;28;19917;-76
2022/10/30 07:33:05;;;;;;;;;;;14.80;99.90;;;;;;5035842;28;21240;-76
2022/10/30 07:35:31;;;;;;;;;;;14.80;99.90;;;;;;5042830;28;19917;-75
2022/10/30 07:38:03;;;;;;;;;;;14.80;99.90;;;;;;5036806;28;19917;-74
2022/10/30 07:40:29;;;;;;;;;;;14.80;99.90;;;;;;5027167;28;19960;-76
2022/10/30 07:42:55;;;;;;;;;;;14.80;99.90;;;;;;5034645;28;20007;-75
2022/10/30 07:45:20;;;;;;;;;;;14.80;99.90;;;;;;5033548;28;19979;-75
2022/10/30 07:47:46;;;;;;;;;;;14.80;99.90;;;;;;5035866;28;20078;-76
2022/10/30 07:50:11;;;;;;;;;;;14.80;99.90;;;;;;5035394;28;19928;-77
2022/10/30 07:52:37;;;;;;;;;;;14.80;99.90;;;;;;5036729;28;20064;-77
2022/10/30 07:55:03;;;;;;;;;;;14.70;99.90;;;;;;5042296;28;20031;-76
2022/10/30 07:57:36;;;;;;;;;;;14.70;99.90;;;;;;5041182;28;20272;-77
2022/10/30 08:00:05;;;;;;;;;;;14.70;99.90;;;;;;5039019;28;19943;-76
2022/10/30 08:02:31;;;;;;;;;;;14.60;99.90;;;;;;5032706;28;20471;-78
2022/10/30 08:04:57;;;;;;;;;;;14.60;99.90;;;;;;5037879;28;19932;-79
2022/10/30 08:07:22;;;;;;;;;;;14.60;99.90;;;;;;5041701;28;20015;-78
2022/10/30 08:09:48;;;;;;;;;;;14.60;99.90;;;;;;5034177;28;20412;-76
2022/10/30 08:12:14;;;;;;;;;;;14.60;99.90;;;;;;5030340;28;19933;-77
2022/10/30 08:14:39;;;;;;;;;;;14.60;99.90;;;;;;5032018;28;19928;-77
2022/10/30 08:17:06;;;;;;;;;;;14.50;99.90;;;;;;5035768;28;19917;-76
2022/10/30 08:19:32;;;;;;;;;;;14.50;99.90;;;;;;5037606;28;20509;-77
2022/10/30 08:21:58;;;;;;;;;;;14.50;99.90;;;;;;5027163;28;20026;-77
2022/10/30 08:24:24;;;;;;;;;;;14.50;99.90;;;;;;5033497;28;20090;-77
2022/10/30 08:26:52;;;;;;;;;;;14.60;99.90;;;;;;5029641;28;19934;-79
2022/10/30 08:29:18;;;;;;;;;;;14.60;99.90;;;;;;5029389;28;19921;-80
2022/10/30 08:31:43;;;;;;;;;;;14.70;99.90;;;;;;5026246;28;19967;-78
2022/10/30 08:34:09;;;;;;;;;;;14.70;99.90;;;;;;5024399;28;19951;-77
2022/10/30 08:36:34;;;;;;;;;;;14.70;99.90;;;;;;5035673;28;19916;-77
2022/10/30 08:39:02;;;;;;;;;;;14.60;99.90;;;;;;5026035;28;19916;-77
2022/10/30 08:41:28;;;;;;;;;;;14.70;99.90;;;;;;5031684;28;20005;-75
2022/10/30 08:43:54;;;;;;;;;;;14.70;99.90;;;;;;5027922;28;20011;-76
2022/10/30 08:46:19;;;;;;;;;;;14.70;99.90;;;;;;5026020;28;19921;-75
2022/10/30 08:48:45;;;;;;;;;;;14.80;99.90;;;;;;5023670;28;20385;-76
2022/10/30 08:51:10;;;;;;;;;;;14.80;99.90;;;;;;5032283;28;19924;-76
2022/10/30 08:53:36;;;;;;;;;;;14.90;99.90;;;;;;5027761;28;20003;-78
2022/10/30 08:56:01;;;;;;;;;;;15.00;99.90;;;;;;5036226;28;19916;-76
2022/10/30 08:58:27;;;;;;;;;;;15.10;99.90;;;;;;5040403;28;19917;-75
2022/10/30 09:00:52;;;;;;;;;;;15.10;99.90;;;;;;5038136;28;19978;-76
2022/10/30 09:03:18;;;;;;;;;;;15.00;99.90;;;;;;5042411;28;19925;-76
2022/10/30 09:05:43;;;;;;;;;;;15.00;99.90;;;;;;5038953;28;19921;-76
2022/10/30 09:08:09;;;;;;;;;;;15.00;99.90;;;;;;5034994;28;19924;-76
2022/10/30 09:10:34;;;;;;;;;;;14.90;99.90;;;;;;5036601;28;19917;-75
2022/10/30 09:13:01;;;;;;;;;;;15.00;99.90;;;;;;5038703;28;19916;-75
2022/10/30 09:15:26;;;;;;;;;;;15.00;99.90;;;;;;5036672;28;20019;-74
2022/10/30 09:17:59;;;;;;;;;;;14.80;99.90;;;;;;5031852;28;20030;-76
2022/10/30 09:20:25;;;;;;;;;;;14.80;99.90;;;;;;5030856;28;20388;-75
2022/10/30 09:22:50;;;;;;;;;;;14.80;99.90;;;;;;5024183;28;19923;-74
2022/10/30 09:25:16;;;;;;;;;;;14.80;99.90;;;;;;5023120;28;19928;-75
2022/10/30 09:27:42;;;;;;;;;;;14.90;99.90;;;;;;5025369;28;19916;-75
2022/10/30 09:30:08;;;;;;;;;;;14.90;99.90;;;;;;5028183;28;19917;-76
2022/10/30 09:32:33;;;;;;;;;;;14.90;99.90;;;;;;5029077;28;19917;-75
2022/10/30 09:34:58;;;;;;;;;;;14.90;99.90;;;;;;5032159;28;19981;-75
2022/10/30 09:37:25;;;;;;;;;;;14.90;99.90;;;;;;5040327;28;19921;-75
2022/10/30 09:39:50;;;;;;;;;;;14.80;99.90;;;;;;5035547;28;19972;-74
2022/10/30 09:42:32;;;;;;;;;;;14.80;99.90;;;;;;5033414;28;20422;-75
2022/10/30 09:45:07;;;;;;;;;;;14.80;99.90;;;;;;5034379;28;19971;-74
2022/10/30 09:47:33;;;;;;;;;;;14.90;99.90;;;;;;5032162;28;20008;-75
2022/10/30 09:49:58;;;;;;;;;;;14.90;99.90;;;;;;5029550;28;19935;-74
2022/10/30 09:52:26;;;;;;;;;;;15.00;99.90;;;;;;5031126;28;19920;-75
2022/10/30 09:54:58;;;;;;;;;;;15.00;99.90;;;;;;5024417;28;20123;-74
2022/10/30 09:57:29;;;;;;;;;;;14.90;99.90;;;;;;5030749;28;20392;-75
2022/10/30 10:00:10;;;;;;;;;;;14.90;99.90;;;;;;5043718;28;19916;-75
2022/10/30 10:02:48;;;;;;;;;;;14.90;99.90;;;;;;5026706;28;19927;-75
2022/10/30 10:05:22;;;;;;;;;;;14.70;99.90;;;;;;5028812;28;19935;-74
2022/10/30 10:07:49;;;;;;;;;;;14.70;99.90;;;;;;5035793;28;20668;-76
2022/10/30 10:10:34;;;;;;;;;;;14.70;99.90;;;;;;5031324;28;19947;-76
2022/10/30 10:13:01;;;;;;;;;;;14.70;99.90;;;;;;5022152;28;19978;-77
2022/10/30 10:15:26;;;;;;;;;;;14.70;99.90;;;;;;5041304;28;19917;-77
2022/10/30 10:17:52;;;;;;;;;;;14.80;99.90;;;;;;5040311;28;20512;-77
2022/10/30 10:20:40;;;;;;;;;;;14.80;99.90;;;;;;5040684;28;19970;-77
2022/10/30 10:23:13;;;;;;;;;;;14.80;99.90;;;;;;5052252;28;20007;-77
2022/10/30 10:25:42;;;;;;;;;;;14.90;99.90;;;;;;5036550;28;19925;-77
2022/10/30 10:28:27;;;;;;;;;;;14.90;99.90;;;;;;5049082;28;19917;-78
2022/10/30 10:30:58;;;;;;;;;;;15.10;99.90;;;;;;5038455;28;19948;-78
2022/10/30 10:33:41;;;;;;;;;;;15.20;99.90;;;;;;5038362;28;19921;-78
2022/10/30 10:36:13;;;;;;;;;;;15.20;99.90;;;;;;5039402;28;19917;-78
2022/10/30 10:38:42;;;;;;;;;;;15.20;99.90;;;;;;5028587;28;20339;-78
2022/10/30 10:41:18;;;;;;;;;;;15.10;99.90;;;;;;5041805;28;20103;-78
2022/10/30 10:44:09;;;;;;;;;;;15.10;99.90;;;;;;5040339;28;19970;-79
2022/10/30 10:46:35;;;;;;;;;;;15.10;99.90;;;;;;5038525;28;19990;-78
2022/10/30 10:49:03;;;;;;;;;;;15.10;99.90;;;;;;5040413;28;19917;-79
2022/10/30 10:51:34;;;;;;;;;;;15.10;99.90;;;;;;5057002;28;19925;-77
2022/10/30 10:54:04;;;;;;;;;;;15.00;99.90;;;;;;5036662;28;20134;-77
2022/10/30 10:56:31;;;;;;;;;;;15.20;99.90;;;;;;5042233;28;19917;-78
2022/10/30 10:59:00;;;;;;;;;;;15.30;99.90;;;;;;5040623;28;20399;-79
2022/10/30 11:01:34;;;;;;;;;;;15.30;99.90;;;;;;5044226;28;19956;-80
2022/10/30 11:04:23;;;;;;;;;;;15.40;99.90;;;;;;5036754;28;19917;-79
2022/10/30 11:06:50;;;;;;;;;;;15.50;99.90;;;;;;5031422;28;19924;-79
2022/10/30 11:09:18;;;;;;;;;;;15.50;99.90;;;;;;5046624;28;19916;-79
2022/10/30 11:11:44;;;;;;;;;;;15.60;99.90;;;;;;5044721;28;19913;-79
2022/10/30 11:14:15;;;;;;;;;;;15.70;99.90;;;;;;5042148;28;19924;-79
2022/10/30 11:16:46;;;;;;;;;;;15.90;99.90;;;;;;5044249;28;19917;-79
2022/10/30 11:19:12;;;;;;;;;;;16.20;99.90;;;;;;5055021;28;20549;-79
2022/10/30 11:21:40;;;;;;;;;;;16.40;99.90;;;;;;5044829;28;20039;-77
2022/10/30 11:24:26;;;;;;;;;;;16.40;99.90;;;;;;5035306;28;19932;-78
2022/10/30 11:26:57;;;;;;;;;;;16.40;99.90;;;;;;5037839;28;19944;-78
2022/10/30 11:29:24;;;;;;;;;;;16.50;99.90;;;;;;5037678;28;19916;-77
2022/10/30 11:32:03;;;;;;;;;;;16.60;99.90;;;;;;5033888;28;20387;-78
2022/10/30 11:34:35;;;;;;;;;;;16.60;99.90;;;;;;5035662;28;19921;-79
2022/10/30 11:37:02;;;;;;;;;;;16.60;99.90;;;;;;5040415;28;19917;-81
2022/10/30 11:39:29;;;;;;;;;;;16.50;99.90;;;;;;5043261;28;19927;-79
2022/10/30 11:41:57;;;;;;;;;;;16.40;99.90;;;;;;5041850;28;19921;-79
2022/10/30 11:44:25;;;;;;;;;;;16.30;99.90;;;;;;5038619;28;20150;-80
2022/10/30 11:46:51;;;;;;;;;;;16.20;99.90;;;;;;5044276;28;20007;-79
2022/10/30 11:49:35;;;;;;;;;;;16.30;99.90;;;;;;5041722;28;20000;-80
2022/10/30 11:52:00;;;;;;;;;;;16.30;99.90;;;;;;5039444;28;19932;-79
2022/10/30 11:54:26;;;;;;;;;;;16.50;99.90;;;;;;5039375;28;19916;-79
2022/10/30 11:56:53;;;;;;;;;;;16.40;99.90;;;;;;5043404;28;20517;-79
2022/10/30 11:59:20;;;;;;;;;;;16.50;99.90;;;;;;5036956;28;20164;-80
2022/10/30 12:01:59;;;;;;;;;;;16.60;99.90;;;;;;5046955;28;19912;-83
2022/10/30 12:04:26;;;;;;;;;;;16.60;99.90;;;;;;5036840;28;20110;-80
2022/10/30 12:07:05;;;;;;;;;;;16.80;99.90;;;;;;5027059;28;19913;-80
2022/10/30 12:09:31;;;;;;;;;;;16.90;99.90;;;;;;5044443;28;19932;-79
2022/10/30 12:11:56;;;;;;;;;;;16.90;99.90;;;;;;5041889;28;19920;-80
2022/10/30 12:14:23;;;;;;;;;;;16.90;99.90;;;;;;5041823;28;19948;-81
2022/10/30 12:16:53;;;;;;;;;;;16.80;99.90;;;;;;5037593;28;19916;-81
2022/10/30 12:19:19;;;;;;;;;;;16.80;99.90;;;;;;5051027;28;20752;-85
2022/10/30 12:21:49;;;;;;;;;;;16.80;99.90;;;;;;5038340;28;19913;-83
2022/10/30 12:24:20;;;;;;;;;;;16.80;99.90;;;;;;5036431;28;19932;-76
2022/10/30 12:26:50;;;;;;;;;;;16.60;99.90;;;;;;5037165;28;20060;-79
2022/10/30 12:29:16;;;;;;;;;;;16.50;99.90;;;;;;5041037;28;20015;-80
2022/10/30 12:31:49;;;;;;;;;;;16.40;99.90;;;;;;5035720;28;19959;-79
2022/10/30 12:34:37;;;;;;;;;;;16.40;99.90;;;;;;5035844;28;20003;-79
2022/10/30 12:37:29;;;;;;;;;;;16.50;99.90;;;;;;5039480;28;19979;-78
2022/10/30 12:40:04;;;;;;;;;;;16.40;99.90;;;;;;5027586;28;19920;-79
2022/10/30 12:42:34;;;;;;;;;;;16.30;99.90;;;;;;5035413;28;19967;-81
2022/10/30 12:45:20;;;;;;;;;;;16.30;99.90;;;;;;5032401;28;20475;-81
2022/10/30 12:47:51;;;;;;;;;;;16.30;99.90;;;;;;5039165;28;19979;-81
2022/10/30 12:50:19;;;;;;;;;;;16.30;99.90;;;;;;5040428;28;19951;-83
2022/10/30 12:52:53;;;;;;;;;;;16.30;99.90;;;;;;5039931;28;19936;-81
2022/10/30 12:55:19;;;;;;;;;;;16.40;99.90;;;;;;5040590;28;19964;-80
2022/10/30 12:58:07;;;;;;;;;;;16.50;99.90;;;;;;5043852;28;20485;-80
2022/10/30 13:00:37;;;;;;;;;;;16.50;99.90;;;;;;5038534;28;19976;-85
2022/10/30 13:03:13;;;;;;;;;;;16.60;99.90;;;;;;5037060;28;19959;-81
2022/10/30 13:05:40;;;;;;;;;;;16.70;99.90;;;;;;5041005;28;19925;-81
2022/10/30 13:08:11;;;;;;;;;;;16.70;99.90;;;;;;5033120;28;20299;-80
2022/10/30 13:10:39;;;;;;;;;;;16.70;99.90;;;;;;5039805;28;19971;-83
2022/10/30 13:13:09;;;;;;;;;;;16.60;99.90;;;;;;5043186;28;19916;-83
2022/10/30 13:15:37;;;;;;;;;;;16.60;99.90;;;;;;5042960;28;20268;-83
2022/10/30 13:18:12;;;;;;;;;;;16.60;99.90;;;;;;5043934;28;20014;-80
2022/10/30 13:20:38;;;;;;;;;;;16.60;99.90;;;;;;5024597;28;20003;-80
2022/10/30 13:23:08;;;;;;;;;;;16.60;99.90;;;;;;5046678;28;19917;-85
2022/10/30 13:25:52;;;;;;;;;;;16.50;99.90;;;;;;5054696;28;19924;-82
2022/10/30 13:28:30;;;;;;;;;;;16.50;99.90;;;;;;5061558;28;19926;-77
2022/10/30 13:31:06;;;;;;;;;;;16.60;99.90;;;;;;5038132;28;19980;-81
2022/10/30 13:33:32;;;;;;;;;;;16.60;99.90;;;;;;5039576;28;19917;-81
2022/10/30 13:36:00;;;;;;;;;;;16.70;99.90;;;;;;5045589;28;19924;-81
2022/10/30 13:38:38;;;;;;;;;;;16.70;99.90;;;;;;5044305;28;19952;-80
2022/10/30 13:41:09;;;;;;;;;;;16.70;99.90;;;;;;5043448;28;19912;-79
2022/10/30 13:43:44;;;;;;;;;;;16.70;99.90;;;;;;5047359;28;19920;-83
2022/10/30 13:46:44;;;;;;;;;;;16.60;99.90;;;;;;5044188;28;19924;-83
2022/10/30 13:49:13;;;;;;;;;;;16.60;99.90;;;;;;4997456;28;19985;-84
2022/10/30 13:51:40;;;;;;;;;;;16.60;99.90;;;;;;5027510;28;19925;-82
2022/10/30 13:54:14;;;;;;;;;;;16.60;99.90;;;;;;5046666;28;19919;-82
2022/10/30 13:56:44;;;;;;;;;;;16.60;99.90;;;;;;5046158;28;19912;-85
2022/10/30 13:59:12;;;;;;;;;;;16.70;99.90;;;;;;5039481;28;19924;-78
2022/10/30 14:01:57;;;;;;;;;;;16.70;99.90;;;;;;5042398;28;19917;-83
2022/10/30 14:04:35;;;;;;;;;;;16.70;99.90;;;;;;5039543;28;19929;-83
2022/10/30 14:07:10;;;;;;;;;;;16.70;99.90;;;;;;5024708;28;20358;-79
2022/10/30 14:09:47;;;;;;;;;;;16.70;99.90;;;;;;5035160;28;19921;-81
2022/10/30 14:12:32;;;;;;;;;;;16.80;99.90;;;;;;5011608;28;20035;-84
2022/10/30 14:15:02;;;;;;;;;;;17.20;99.90;;;;;;5045880;28;19971;-84
2022/10/30 14:17:28;;;;;;;;;;;17.40;99.90;;;;;;5046256;28;19917;-80
2022/10/30 14:20:05;;;;;;;;;;;17.40;99.90;;;;;;5041387;28;20015;-78
2022/10/30 14:22:32;;;;;;;;;;;17.60;99.90;;;;;;5022460;28;19945;-81
2022/10/30 14:24:58;;;;;;;;;;;17.50;99.90;;;;;;5041401;28;19943;-81